sensor_id;sensor_type;location;lat;lon;timestamp;P1;durP1;ratioP1;P2;durP2;ratioP2
9292;SDS011;69930;48.232;12.384;2024-03-07T00:00:56;18.33;;;16.55;;
9292;SDS011;69930;48.232;12.384;2024-03-07T00:03:26;15.63;;;14.05;;
9292;SDS011;69930;48.232;12.384;2024-03-07T00:05:53;19.00;;;17.05;;
9292;SDS011;69930;48.232;12.384;2024-03-07T00:08:20;19.92;;;17.92;;
9292;SDS011;69930;48.232;12.384;2024-03-07T00:10:47;15.70;;;14.30;;
9292;SDS011;69930;48.232;12.384;2024-03-07T00:13:15;17.58;;;15.80;;
9292;SDS011;69930;48.232;12.384;2024-03-07T00:15:42;16.90;;;15.10;;
9292;SDS011;69930;48.232;12.384;2024-03-07T00:18:09;17.05;;;15.40;;
9292;SDS011;69930;48.232;12.384;2024-03-07T00:20:38;17.70;;;16.00;;
9292;SDS011;69930;48.232;12.384;2024-03-07T00:23:05;17.02;;;15.32;;
9292;SDS011;69930;48.232;12.384;2024-03-07T00:25:34;18.95;;;17.15;;
9292;SDS011;69930;48.232;12.384;2024-03-07T00:28:01;19.10;;;17.20;;
9292;SDS011;69930;48.232;12.384;2024-03-07T00:30:28;17.08;;;15.43;;
9292;SDS011;69930;48.232;12.384;2024-03-07T00:32:56;19.70;;;17.67;;
9292;SDS011;69930;48.232;12.384;2024-03-07T00:35:24;24.38;;;21.75;;
9292;SDS011;69930;48.232;12.384;2024-03-07T00:37:52;20.42;;;18.48;;
9292;SDS011;69930;48.232;12.384;2024-03-07T00:40:19;19.67;;;17.70;;
9292;SDS011;69930;48.232;12.384;2024-03-07T00:42:46;18.92;;;17.02;;
9292;SDS011;69930;48.232;12.384;2024-03-07T00:45:14;18.52;;;16.83;;
9292;SDS011;69930;48.232;12.384;2024-03-07T00:47:41;22.48;;;20.17;;
9292;SDS011;69930;48.232;12.384;2024-03-07T00:50:08;18.45;;;16.67;;
9292;SDS011;69930;48.232;12.384;2024-03-07T00:52:36;21.55;;;19.45;;
9292;SDS011;69930;48.232;12.384;2024-03-07T00:55:05;16.75;;;15.35;;
9292;SDS011;69930;48.232;12.384;2024-03-07T00:57:33;17.95;;;16.33;;
9292;SDS011;69930;48.232;12.384;2024-03-07T01:00:01;16.55;;;15.00;;
9292;SDS011;69930;48.232;12.384;2024-03-07T01:02:29;21.40;;;19.00;;
9292;SDS011;69930;48.232;12.384;2024-03-07T01:04:56;23.45;;;20.98;;
9292;SDS011;69930;48.232;12.384;2024-03-07T01:07:23;32.58;;;27.40;;
9292;SDS011;69930;48.232;12.384;2024-03-07T01:09:50;19.42;;;17.63;;
9292;SDS011;69930;48.232;12.384;2024-03-07T01:12:19;22.23;;;20.00;;
9292;SDS011;69930;48.232;12.384;2024-03-07T01:14:49;24.73;;;22.23;;
9292;SDS011;69930;48.232;12.384;2024-03-07T01:17:16;19.27;;;17.48;;
9292;SDS011;69930;48.232;12.384;2024-03-07T01:19:43;19.02;;;17.33;;
9292;SDS011;69930;48.232;12.384;2024-03-07T01:22:10;26.60;;;23.00;;
9292;SDS011;69930;48.232;12.384;2024-03-07T01:24:37;20.20;;;18.27;;
9292;SDS011;69930;48.232;12.384;2024-03-07T01:27:05;19.75;;;17.85;;
9292;SDS011;69930;48.232;12.384;2024-03-07T01:29:34;17.83;;;16.13;;
9292;SDS011;69930;48.232;12.384;2024-03-07T01:32:04;18.60;;;16.90;;
9292;SDS011;69930;48.232;12.384;2024-03-07T01:34:31;21.27;;;19.17;;
9292;SDS011;69930;48.232;12.384;2024-03-07T01:36:58;19.33;;;17.52;;
9292;SDS011;69930;48.232;12.384;2024-03-07T01:39:25;20.17;;;18.25;;
9292;SDS011;69930;48.232;12.384;2024-03-07T01:41:52;24.08;;;21.60;;
9292;SDS011;69930;48.232;12.384;2024-03-07T01:44:19;23.52;;;21.20;;
9292;SDS011;69930;48.232;12.384;2024-03-07T05:19:03;57.78;;;44.90;;
9292;SDS011;69930;48.232;12.384;2024-03-07T05:21:30;48.42;;;40.25;;
9292;SDS011;69930;48.232;12.384;2024-03-07T05:24:05;43.40;;;35.70;;
9292;SDS011;69930;48.232;12.384;2024-03-07T05:26:33;40.97;;;35.03;;
9292;SDS011;69930;48.232;12.384;2024-03-07T05:29:02;43.70;;;35.63;;
9292;SDS011;69930;48.232;12.384;2024-03-07T05:31:33;43.78;;;35.72;;
9292;SDS011;69930;48.232;12.384;2024-03-07T05:34:00;43.20;;;35.03;;
9292;SDS011;69930;48.232;12.384;2024-03-07T05:36:30;40.10;;;33.90;;
9292;SDS011;69930;48.232;12.384;2024-03-07T05:38:58;40.85;;;33.00;;
9292;SDS011;69930;48.232;12.384;2024-03-07T05:41:25;43.85;;;34.67;;
9292;SDS011;69930;48.232;12.384;2024-03-07T05:43:55;44.05;;;34.70;;
9292;SDS011;69930;48.232;12.384;2024-03-07T05:46:22;38.92;;;31.85;;
9292;SDS011;69930;48.232;12.384;2024-03-07T05:48:49;39.00;;;31.90;;
9292;SDS011;69930;48.232;12.384;2024-03-07T05:51:22;39.88;;;32.72;;
9292;SDS011;69930;48.232;12.384;2024-03-07T05:53:49;37.58;;;31.33;;
9292;SDS011;69930;48.232;12.384;2024-03-07T05:56:17;35.13;;;30.23;;
9292;SDS011;69930;48.232;12.384;2024-03-07T05:58:45;42.22;;;32.83;;
9292;SDS011;69930;48.232;12.384;2024-03-07T06:01:12;42.08;;;33.88;;
9292;SDS011;69930;48.232;12.384;2024-03-07T06:03:39;41.90;;;32.95;;
9292;SDS011;69930;48.232;12.384;2024-03-07T06:06:06;43.38;;;32.80;;
9292;SDS011;69930;48.232;12.384;2024-03-07T06:08:38;43.22;;;33.03;;
9292;SDS011;69930;48.232;12.384;2024-03-07T06:11:07;37.47;;;31.15;;
9292;SDS011;69930;48.232;12.384;2024-03-07T06:13:35;36.85;;;31.15;;
9292;SDS011;69930;48.232;12.384;2024-03-07T06:16:02;42.08;;;33.80;;
9292;SDS011;69930;48.232;12.384;2024-03-07T06:18:33;38.65;;;32.00;;
9292;SDS011;69930;48.232;12.384;2024-03-07T06:21:01;43.40;;;33.95;;
9292;SDS011;69930;48.232;12.384;2024-03-07T06:23:29;40.85;;;33.20;;
9292;SDS011;69930;48.232;12.384;2024-03-07T06:25:59;39.88;;;33.38;;
9292;SDS011;69930;48.232;12.384;2024-03-07T06:28:26;42.47;;;34.03;;
9292;SDS011;69930;48.232;12.384;2024-03-07T06:30:57;37.88;;;30.48;;
9292;SDS011;69930;48.232;12.384;2024-03-07T06:33:24;56.80;;;38.97;;
9292;SDS011;69930;48.232;12.384;2024-03-07T06:35:51;41.95;;;33.58;;
9292;SDS011;69930;48.232;12.384;2024-03-07T06:38:18;46.95;;;35.58;;
9292;SDS011;69930;48.232;12.384;2024-03-07T06:40:46;43.63;;;34.05;;
9292;SDS011;69930;48.232;12.384;2024-03-07T06:43:15;41.50;;;33.00;;
9292;SDS011;69930;48.232;12.384;2024-03-07T06:45:42;40.05;;;33.30;;
9292;SDS011;69930;48.232;12.384;2024-03-07T06:48:11;44.53;;;33.40;;
9292;SDS011;69930;48.232;12.384;2024-03-07T06:50:39;41.80;;;33.05;;
9292;SDS011;69930;48.232;12.384;2024-03-07T06:53:06;43.25;;;34.42;;
9292;SDS011;69930;48.232;12.384;2024-03-07T06:55:34;45.03;;;35.05;;
9292;SDS011;69930;48.232;12.384;2024-03-07T06:58:02;40.63;;;33.97;;
9292;SDS011;69930;48.232;12.384;2024-03-07T07:00:31;44.00;;;35.97;;
9292;SDS011;69930;48.232;12.384;2024-03-07T07:03:01;42.70;;;34.80;;
9292;SDS011;69930;48.232;12.384;2024-03-07T07:05:30;41.65;;;34.33;;
9292;SDS011;69930;48.232;12.384;2024-03-07T07:07:59;45.25;;;33.55;;
9292;SDS011;69930;48.232;12.384;2024-03-07T07:10:26;40.70;;;34.25;;
9292;SDS011;69930;48.232;12.384;2024-03-07T07:12:53;43.53;;;34.15;;
9292;SDS011;69930;48.232;12.384;2024-03-07T07:15:23;44.42;;;34.13;;
9292;SDS011;69930;48.232;12.384;2024-03-07T07:17:51;41.42;;;33.97;;
9292;SDS011;69930;48.232;12.384;2024-03-07T07:20:18;43.80;;;35.38;;
9292;SDS011;69930;48.232;12.384;2024-03-07T07:22:46;43.53;;;33.90;;
9292;SDS011;69930;48.232;12.384;2024-03-07T07:25:14;46.17;;;34.80;;
9292;SDS011;69930;48.232;12.384;2024-03-07T07:27:41;48.53;;;36.35;;
9292;SDS011;69930;48.232;12.384;2024-03-07T07:30:10;43.17;;;34.35;;
9292;SDS011;69930;48.232;12.384;2024-03-07T07:32:38;44.30;;;35.22;;
9292;SDS011;69930;48.232;12.384;2024-03-07T07:35:08;46.38;;;35.75;;
9292;SDS011;69930;48.232;12.384;2024-03-07T08:48:29;47.50;;;36.13;;
9292;SDS011;69930;48.232;12.384;2024-03-07T08:50:56;42.95;;;36.13;;
9292;SDS011;69930;48.232;12.384;2024-03-07T08:53:23;46.17;;;36.88;;
9292;SDS011;69930;48.232;12.384;2024-03-07T08:55:50;47.42;;;38.03;;
9292;SDS011;69930;48.232;12.384;2024-03-07T08:58:17;48.50;;;35.60;;
9292;SDS011;69930;48.232;12.384;2024-03-07T09:00:44;47.92;;;35.70;;
9292;SDS011;69930;48.232;12.384;2024-03-07T09:03:12;46.05;;;38.00;;
9292;SDS011;69930;48.232;12.384;2024-03-07T09:05:41;43.42;;;37.10;;
9292;SDS011;69930;48.232;12.384;2024-03-07T09:08:08;48.83;;;38.03;;
9292;SDS011;69930;48.232;12.384;2024-03-07T09:10:37;44.15;;;36.15;;
9292;SDS011;69930;48.232;12.384;2024-03-07T09:13:07;44.88;;;37.42;;
9292;SDS011;69930;48.232;12.384;2024-03-07T09:15:35;49.22;;;37.85;;
9292;SDS011;69930;48.232;12.384;2024-03-07T09:18:02;47.47;;;37.55;;
9292;SDS011;69930;48.232;12.384;2024-03-07T09:20:31;47.80;;;37.95;;
9292;SDS011;69930;48.232;12.384;2024-03-07T09:22:59;46.65;;;37.05;;
9292;SDS011;69930;48.232;12.384;2024-03-07T09:25:26;44.60;;;36.65;;
9292;SDS011;69930;48.232;12.384;2024-03-07T09:27:58;49.72;;;41.78;;
9292;SDS011;69930;48.232;12.384;2024-03-07T09:30:26;51.80;;;40.40;;
9292;SDS011;69930;48.232;12.384;2024-03-07T09:32:53;47.90;;;39.08;;
9292;SDS011;69930;48.232;12.384;2024-03-07T09:35:21;46.47;;;38.90;;
9292;SDS011;69930;48.232;12.384;2024-03-07T09:37:48;51.30;;;37.83;;
9292;SDS011;69930;48.232;12.384;2024-03-07T09:40:16;47.00;;;39.03;;
9292;SDS011;69930;48.232;12.384;2024-03-07T09:42:45;49.13;;;39.28;;
9292;SDS011;69930;48.232;12.384;2024-03-07T09:45:15;45.75;;;37.90;;
9292;SDS011;69930;48.232;12.384;2024-03-07T09:47:44;49.58;;;40.38;;
9292;SDS011;69930;48.232;12.384;2024-03-07T09:50:13;45.88;;;37.97;;
9292;SDS011;69930;48.232;12.384;2024-03-07T09:52:44;64.63;;;47.53;;
9292;SDS011;69930;48.232;12.384;2024-03-07T09:55:16;52.72;;;43.47;;
9292;SDS011;69930;48.232;12.384;2024-03-07T11:08:43;37.33;;;31.95;;
9292;SDS011;69930;48.232;12.384;2024-03-07T11:11:10;38.53;;;33.92;;
9292;SDS011;69930;48.232;12.384;2024-03-07T11:13:39;39.30;;;35.00;;
9292;SDS011;69930;48.232;12.384;2024-03-07T11:16:07;39.50;;;35.25;;
9292;SDS011;69930;48.232;12.384;2024-03-07T11:18:38;40.40;;;35.08;;
9292;SDS011;69930;48.232;12.384;2024-03-07T11:21:05;39.83;;;35.35;;
9292;SDS011;69930;48.232;12.384;2024-03-07T11:23:33;42.13;;;36.58;;
9292;SDS011;69930;48.232;12.384;2024-03-07T11:26:05;40.80;;;36.40;;
9292;SDS011;69930;48.232;12.384;2024-03-07T11:28:33;41.10;;;35.53;;
9292;SDS011;69930;48.232;12.384;2024-03-07T11:31:06;40.60;;;36.28;;
9292;SDS011;69930;48.232;12.384;2024-03-07T11:33:36;42.92;;;37.45;;
9292;SDS011;69930;48.232;12.384;2024-03-07T11:36:06;43.72;;;38.10;;
9292;SDS011;69930;48.232;12.384;2024-03-07T11:38:34;40.70;;;36.13;;
9292;SDS011;69930;48.232;12.384;2024-03-07T11:41:03;42.53;;;34.67;;
9292;SDS011;69930;48.232;12.384;2024-03-07T11:43:38;39.40;;;33.90;;
9292;SDS011;69930;48.232;12.384;2024-03-07T11:46:07;40.65;;;34.22;;
9292;SDS011;69930;48.232;12.384;2024-03-07T11:48:38;38.50;;;32.60;;
9292;SDS011;69930;48.232;12.384;2024-03-07T11:51:07;37.25;;;31.52;;
9292;SDS011;69930;48.232;12.384;2024-03-07T11:53:38;37.47;;;30.15;;
9292;SDS011;69930;48.232;12.384;2024-03-07T11:56:07;40.58;;;31.45;;
9292;SDS011;69930;48.232;12.384;2024-03-07T11:58:41;36.30;;;31.17;;
9292;SDS011;69930;48.232;12.384;2024-03-07T12:01:10;28.83;;;24.70;;
9292;SDS011;69930;48.232;12.384;2024-03-07T12:03:39;27.20;;;24.13;;
9292;SDS011;69930;48.232;12.384;2024-03-07T12:06:07;25.48;;;22.42;;
9292;SDS011;69930;48.232;12.384;2024-03-07T12:08:37;25.30;;;21.90;;
9292;SDS011;69930;48.232;12.384;2024-03-07T12:11:08;22.80;;;20.45;;
9292;SDS011;69930;48.232;12.384;2024-03-07T12:13:40;22.90;;;20.33;;
9292;SDS011;69930;48.232;12.384;2024-03-07T12:16:08;23.60;;;20.00;;
9292;SDS011;69930;48.232;12.384;2024-03-07T12:18:35;27.40;;;20.02;;
9292;SDS011;69930;48.232;12.384;2024-03-07T12:21:03;21.80;;;19.60;;
9292;SDS011;69930;48.232;12.384;2024-03-07T12:23:34;20.40;;;18.38;;
9292;SDS011;69930;48.232;12.384;2024-03-07T12:26:01;26.45;;;21.30;;
9292;SDS011;69930;48.232;12.384;2024-03-07T12:28:30;23.63;;;20.63;;
9292;SDS011;69930;48.232;12.384;2024-03-07T12:30:58;85.78;;;56.63;;
9292;SDS011;69930;48.232;12.384;2024-03-07T12:33:28;64.15;;;47.63;;
9292;SDS011;69930;48.232;12.384;2024-03-07T12:35:57;134.50;;;102.03;;
9292;SDS011;69930;48.232;12.384;2024-03-07T12:38:31;26.58;;;22.42;;
9292;SDS011;69930;48.232;12.384;2024-03-07T12:41:04;37.55;;;29.67;;
9292;SDS011;69930;48.232;12.384;2024-03-07T12:43:33;33.50;;;26.67;;
9292;SDS011;69930;48.232;12.384;2024-03-07T12:46:01;22.90;;;17.95;;
9292;SDS011;69930;48.232;12.384;2024-03-07T12:48:30;16.70;;;14.48;;
9292;SDS011;69930;48.232;12.384;2024-03-07T12:50:58;15.48;;;13.88;;
9292;SDS011;69930;48.232;12.384;2024-03-07T12:53:25;15.52;;;14.02;;
9292;SDS011;69930;48.232;12.384;2024-03-07T12:55:52;15.45;;;13.85;;
9292;SDS011;69930;48.232;12.384;2024-03-07T12:58:19;15.15;;;13.65;;
9292;SDS011;69930;48.232;12.384;2024-03-07T13:00:49;15.23;;;13.63;;
9292;SDS011;69930;48.232;12.384;2024-03-07T13:03:16;14.77;;;13.27;;
9292;SDS011;69930;48.232;12.384;2024-03-07T13:05:44;15.63;;;13.93;;
9292;SDS011;69930;48.232;12.384;2024-03-07T13:08:11;16.55;;;14.00;;
9292;SDS011;69930;48.232;12.384;2024-03-07T13:10:38;16.55;;;13.90;;
9292;SDS011;69930;48.232;12.384;2024-03-07T13:13:06;16.35;;;14.65;;
9292;SDS011;69930;48.232;12.384;2024-03-07T13:15:34;16.50;;;14.77;;
9292;SDS011;69930;48.232;12.384;2024-03-07T13:18:05;15.77;;;14.27;;
9292;SDS011;69930;48.232;12.384;2024-03-07T13:20:34;17.67;;;15.98;;
9292;SDS011;69930;48.232;12.384;2024-03-07T13:23:01;15.90;;;14.23;;
9292;SDS011;69930;48.232;12.384;2024-03-07T13:25:30;17.38;;;15.57;;
9292;SDS011;69930;48.232;12.384;2024-03-07T13:28:00;17.00;;;15.23;;
9292;SDS011;69930;48.232;12.384;2024-03-07T13:30:29;17.20;;;15.05;;
9292;SDS011;69930;48.232;12.384;2024-03-07T13:32:56;15.80;;;14.20;;
9292;SDS011;69930;48.232;12.384;2024-03-07T13:35:26;13.85;;;12.50;;
9292;SDS011;69930;48.232;12.384;2024-03-07T13:37:53;14.35;;;12.95;;
9292;SDS011;69930;48.232;12.384;2024-03-07T13:40:21;15.70;;;14.10;;
9292;SDS011;69930;48.232;12.384;2024-03-07T13:42:53;15.75;;;13.57;;
9292;SDS011;69930;48.232;12.384;2024-03-07T13:45:22;13.93;;;12.52;;
9292;SDS011;69930;48.232;12.384;2024-03-07T13:47:52;14.70;;;13.30;;
9292;SDS011;69930;48.232;12.384;2024-03-07T13:50:20;13.18;;;11.80;;
9292;SDS011;69930;48.232;12.384;2024-03-07T13:52:51;14.75;;;13.35;;
9292;SDS011;69930;48.232;12.384;2024-03-07T13:55:53;15.15;;;13.63;;
9292;SDS011;69930;48.232;12.384;2024-03-07T13:58:40;14.65;;;13.10;;
9292;SDS011;69930;48.232;12.384;2024-03-07T14:01:28;13.95;;;12.65;;
9292;SDS011;69930;48.232;12.384;2024-03-07T14:04:14;13.45;;;12.02;;
9292;SDS011;69930;48.232;12.384;2024-03-07T14:07:09;13.35;;;11.93;;
9292;SDS011;69930;48.232;12.384;2024-03-07T14:09:59;14.25;;;12.85;;
9292;SDS011;69930;48.232;12.384;2024-03-07T14:12:55;13.55;;;11.98;;
9292;SDS011;69930;48.232;12.384;2024-03-07T14:15:43;11.52;;;10.43;;
9292;SDS011;69930;48.232;12.384;2024-03-07T14:21:53;12.88;;;11.57;;
9292;SDS011;69930;48.232;12.384;2024-03-07T14:24:44;13.02;;;11.82;;
9292;SDS011;69930;48.232;12.384;2024-03-07T14:27:49;13.25;;;11.85;;
9292;SDS011;69930;48.232;12.384;2024-03-07T14:30:24;14.15;;;12.65;;
9292;SDS011;69930;48.232;12.384;2024-03-07T14:33:05;13.43;;;12.07;;
9292;SDS011;69930;48.232;12.384;2024-03-07T14:35:35;14.02;;;12.63;;
9292;SDS011;69930;48.232;12.384;2024-03-07T14:38:25;14.45;;;12.90;;
9292;SDS011;69930;48.232;12.384;2024-03-07T14:40:55;14.15;;;12.77;;
9292;SDS011;69930;48.232;12.384;2024-03-07T14:43:23;13.82;;;12.50;;
9292;SDS011;69930;48.232;12.384;2024-03-07T14:45:51;14.63;;;13.13;;
9292;SDS011;69930;48.232;12.384;2024-03-07T14:48:20;14.60;;;13.20;;
9292;SDS011;69930;48.232;12.384;2024-03-07T14:50:47;14.85;;;13.35;;
9292;SDS011;69930;48.232;12.384;2024-03-07T14:53:14;15.70;;;14.10;;
9292;SDS011;69930;48.232;12.384;2024-03-07T14:55:43;15.85;;;14.15;;
9292;SDS011;69930;48.232;12.384;2024-03-07T14:58:12;16.02;;;14.32;;
9292;SDS011;69930;48.232;12.384;2024-03-07T15:00:41;15.25;;;13.75;;
9292;SDS011;69930;48.232;12.384;2024-03-07T15:03:09;16.17;;;13.82;;
9292;SDS011;69930;48.232;12.384;2024-03-07T15:05:39;15.73;;;14.13;;
9292;SDS011;69930;48.232;12.384;2024-03-07T15:08:07;15.82;;;14.25;;
9292;SDS011;69930;48.232;12.384;2024-03-07T15:10:36;16.00;;;14.30;;
9292;SDS011;69930;48.232;12.384;2024-03-07T15:13:06;17.13;;;14.52;;
9292;SDS011;69930;48.232;12.384;2024-03-07T15:15:39;15.55;;;13.90;;
9292;SDS011;69930;48.232;12.384;2024-03-07T15:18:08;18.02;;;14.80;;
9292;SDS011;69930;48.232;12.384;2024-03-07T15:20:35;15.55;;;14.00;;
9292;SDS011;69930;48.232;12.384;2024-03-07T15:23:03;16.83;;;15.13;;
9292;SDS011;69930;48.232;12.384;2024-03-07T15:25:31;15.85;;;14.25;;
9292;SDS011;69930;48.232;12.384;2024-03-07T15:28:00;16.40;;;14.70;;
9292;SDS011;69930;48.232;12.384;2024-03-07T15:30:27;18.17;;;16.35;;
9292;SDS011;69930;48.232;12.384;2024-03-07T15:32:59;17.52;;;15.65;;
9292;SDS011;69930;48.232;12.384;2024-03-07T15:35:26;17.67;;;15.88;;
9292;SDS011;69930;48.232;12.384;2024-03-07T15:37:56;18.70;;;16.80;;
9292;SDS011;69930;48.232;12.384;2024-03-07T15:40:23;19.17;;;17.17;;
9292;SDS011;69930;48.232;12.384;2024-03-07T15:42:54;17.73;;;15.93;;
9292;SDS011;69930;48.232;12.384;2024-03-07T15:45:23;18.33;;;16.52;;
9292;SDS011;69930;48.232;12.384;2024-03-07T18:07:55;20.02;;;17.02;;
9292;SDS011;69930;48.232;12.384;2024-03-07T18:10:23;19.50;;;17.02;;
9292;SDS011;69930;48.232;12.384;2024-03-07T18:12:51;19.48;;;17.38;;
9292;SDS011;69930;48.232;12.384;2024-03-07T18:15:18;19.42;;;17.33;;
9292;SDS011;69930;48.232;12.384;2024-03-07T18:17:47;18.75;;;16.73;;
9292;SDS011;69930;48.232;12.384;2024-03-07T18:20:15;19.88;;;17.63;;
9292;SDS011;69930;48.232;12.384;2024-03-07T18:22:42;22.10;;;18.67;;
9292;SDS011;69930;48.232;12.384;2024-03-07T18:25:14;20.10;;;17.83;;
9292;SDS011;69930;48.232;12.384;2024-03-07T18:27:47;20.90;;;18.45;;
9292;SDS011;69930;48.232;12.384;2024-03-07T18:30:15;22.58;;;19.40;;
9292;SDS011;69930;48.232;12.384;2024-03-07T18:32:44;22.17;;;19.73;;
9292;SDS011;69930;48.232;12.384;2024-03-07T18:35:11;23.58;;;21.05;;
9292;SDS011;69930;48.232;12.384;2024-03-07T18:37:38;24.88;;;20.70;;
9292;SDS011;69930;48.232;12.384;2024-03-07T18:40:06;23.58;;;20.17;;
9292;SDS011;69930;48.232;12.384;2024-03-07T18:42:41;26.38;;;23.20;;
9292;SDS011;69930;48.232;12.384;2024-03-07T18:45:13;22.27;;;19.88;;
9292;SDS011;69930;48.232;12.384;2024-03-07T18:47:44;24.92;;;20.50;;
9292;SDS011;69930;48.232;12.384;2024-03-07T18:50:17;27.48;;;21.80;;
9292;SDS011;69930;48.232;12.384;2024-03-07T18:52:46;22.45;;;19.85;;
9292;SDS011;69930;48.232;12.384;2024-03-07T18:55:16;22.48;;;20.08;;
9292;SDS011;69930;48.232;12.384;2024-03-07T18:57:48;22.90;;;20.40;;
9292;SDS011;69930;48.232;12.384;2024-03-07T19:00:16;21.48;;;19.05;;
9292;SDS011;69930;48.232;12.384;2024-03-07T19:02:56;20.92;;;18.30;;
9292;SDS011;69930;48.232;12.384;2024-03-07T19:05:25;21.40;;;19.08;;
9292;SDS011;69930;48.232;12.384;2024-03-07T19:07:53;20.42;;;18.25;;
9292;SDS011;69930;48.232;12.384;2024-03-07T19:10:21;21.98;;;18.73;;
9292;SDS011;69930;48.232;12.384;2024-03-07T19:12:56;20.08;;;17.73;;
9292;SDS011;69930;48.232;12.384;2024-03-07T19:15:24;21.30;;;19.00;;
9292;SDS011;69930;48.232;12.384;2024-03-07T19:17:52;22.23;;;18.65;;
9292;SDS011;69930;48.232;12.384;2024-03-07T19:20:19;21.55;;;19.25;;
9292;SDS011;69930;48.232;12.384;2024-03-07T19:22:47;22.58;;;19.60;;
9292;SDS011;69930;48.232;12.384;2024-03-07T19:25:18;22.40;;;20.05;;
9292;SDS011;69930;48.232;12.384;2024-03-07T19:27:45;21.13;;;17.83;;
9292;SDS011;69930;48.232;12.384;2024-03-07T19:30:14;21.42;;;18.90;;
9292;SDS011;69930;48.232;12.384;2024-03-07T19:32:42;21.05;;;18.33;;
9292;SDS011;69930;48.232;12.384;2024-03-07T19:35:10;22.40;;;18.88;;
9292;SDS011;69930;48.232;12.384;2024-03-07T19:37:40;21.92;;;19.50;;
9292;SDS011;69930;48.232;12.384;2024-03-07T19:40:11;21.90;;;18.25;;
9292;SDS011;69930;48.232;12.384;2024-03-07T19:42:40;22.15;;;18.65;;
9292;SDS011;69930;48.232;12.384;2024-03-07T19:45:07;20.95;;;18.75;;
9292;SDS011;69930;48.232;12.384;2024-03-07T19:47:40;20.67;;;17.70;;
9292;SDS011;69930;48.232;12.384;2024-03-07T19:50:07;23.15;;;18.88;;
9292;SDS011;69930;48.232;12.384;2024-03-07T19:52:37;23.55;;;19.80;;
9292;SDS011;69930;48.232;12.384;2024-03-07T19:55:04;24.45;;;20.92;;
9292;SDS011;69930;48.232;12.384;2024-03-07T19:57:33;24.13;;;19.27;;
9292;SDS011;69930;48.232;12.384;2024-03-07T20:00:02;22.83;;;19.77;;
9292;SDS011;69930;48.232;12.384;2024-03-07T20:02:37;22.95;;;19.17;;
9292;SDS011;69930;48.232;12.384;2024-03-07T20:05:07;21.85;;;19.52;;
9292;SDS011;69930;48.232;12.384;2024-03-07T20:07:35;23.35;;;19.65;;
9292;SDS011;69930;48.232;12.384;2024-03-07T20:10:03;23.70;;;19.00;;
9292;SDS011;69930;48.232;12.384;2024-03-07T20:12:33;22.52;;;19.67;;
9292;SDS011;69930;48.232;12.384;2024-03-07T20:15:02;22.73;;;19.05;;
9292;SDS011;69930;48.232;12.384;2024-03-07T20:17:29;23.33;;;20.10;;
9292;SDS011;69930;48.232;12.384;2024-03-07T20:19:56;23.52;;;19.40;;
9292;SDS011;69930;48.232;12.384;2024-03-07T20:22:25;23.63;;;20.50;;
9292;SDS011;69930;48.232;12.384;2024-03-07T20:24:52;22.40;;;19.48;;
9292;SDS011;69930;48.232;12.384;2024-03-07T20:27:19;22.23;;;19.00;;
9292;SDS011;69930;48.232;12.384;2024-03-07T20:29:46;22.85;;;19.25;;
9292;SDS011;69930;48.232;12.384;2024-03-07T20:32:13;21.98;;;19.05;;
9292;SDS011;69930;48.232;12.384;2024-03-07T20:34:40;22.90;;;19.33;;
9292;SDS011;69930;48.232;12.384;2024-03-07T20:37:08;21.23;;;18.67;;
9292;SDS011;69930;48.232;12.384;2024-03-07T20:39:38;21.70;;;18.65;;
9292;SDS011;69930;48.232;12.384;2024-03-07T20:42:05;23.05;;;18.52;;
9292;SDS011;69930;48.232;12.384;2024-03-07T20:44:35;22.25;;;19.15;;
9292;SDS011;69930;48.232;12.384;2024-03-07T20:47:04;21.27;;;18.63;;
9292;SDS011;69930;48.232;12.384;2024-03-07T20:49:32;23.58;;;19.05;;
9292;SDS011;69930;48.232;12.384;2024-03-07T20:52:01;20.08;;;17.90;;
9292;SDS011;69930;48.232;12.384;2024-03-07T20:54:29;21.02;;;17.58;;
9292;SDS011;69930;48.232;12.384;2024-03-07T20:56:57;19.80;;;17.70;;
9292;SDS011;69930;48.232;12.384;2024-03-07T20:59:24;20.17;;;17.65;;
9292;SDS011;69930;48.232;12.384;2024-03-07T21:01:52;19.77;;;16.23;;
9292;SDS011;69930;48.232;12.384;2024-03-07T21:04:19;20.85;;;17.15;;
9292;SDS011;69930;48.232;12.384;2024-03-07T21:06:46;19.85;;;17.13;;
9292;SDS011;69930;48.232;12.384;2024-03-07T21:09:15;18.45;;;16.45;;
9292;SDS011;69930;48.232;12.384;2024-03-07T21:11:42;18.75;;;16.35;;
9292;SDS011;69930;48.232;12.384;2024-03-07T21:14:11;18.88;;;16.00;;
9292;SDS011;69930;48.232;12.384;2024-03-07T21:16:42;21.02;;;17.42;;
9292;SDS011;69930;48.232;12.384;2024-03-07T21:19:10;18.25;;;16.17;;
9292;SDS011;69930;48.232;12.384;2024-03-07T21:21:37;17.13;;;15.23;;
9292;SDS011;69930;48.232;12.384;2024-03-07T21:24:05;17.65;;;15.45;;
9292;SDS011;69930;48.232;12.384;2024-03-07T21:26:35;19.92;;;16.75;;
9292;SDS011;69930;48.232;12.384;2024-03-07T21:29:02;20.35;;;16.02;;
9292;SDS011;69930;48.232;12.384;2024-03-07T21:31:32;17.75;;;15.85;;
9292;SDS011;69930;48.232;12.384;2024-03-07T21:33:59;19.02;;;16.25;;
9292;SDS011;69930;48.232;12.384;2024-03-07T21:36:26;19.10;;;16.63;;
9292;SDS011;69930;48.232;12.384;2024-03-07T21:38:54;19.13;;;16.33;;
9292;SDS011;69930;48.232;12.384;2024-03-07T21:41:22;22.10;;;18.23;;
9292;SDS011;69930;48.232;12.384;2024-03-07T21:43:49;23.27;;;18.48;;
9292;SDS011;69930;48.232;12.384;2024-03-07T21:46:16;21.27;;;17.98;;
9292;SDS011;69930;48.232;12.384;2024-03-07T21:48:45;22.83;;;18.17;;
9292;SDS011;69930;48.232;12.384;2024-03-07T21:51:13;23.23;;;18.55;;
9292;SDS011;69930;48.232;12.384;2024-03-07T21:53:40;24.65;;;20.30;;
9292;SDS011;69930;48.232;12.384;2024-03-07T21:56:09;23.73;;;20.23;;
9292;SDS011;69930;48.232;12.384;2024-03-07T21:58:39;24.90;;;20.65;;
9292;SDS011;69930;48.232;12.384;2024-03-07T22:01:06;23.90;;;20.08;;
9292;SDS011;69930;48.232;12.384;2024-03-07T22:03:37;27.90;;;21.20;;
9292;SDS011;69930;48.232;12.384;2024-03-07T22:06:08;25.30;;;20.90;;
9292;SDS011;69930;48.232;12.384;2024-03-07T22:08:37;20.92;;;18.38;;
9292;SDS011;69930;48.232;12.384;2024-03-07T22:11:04;22.10;;;18.67;;
9292;SDS011;69930;48.232;12.384;2024-03-07T22:13:33;21.50;;;17.70;;
9292;SDS011;69930;48.232;12.384;2024-03-07T22:16:00;19.73;;;17.40;;
9292;SDS011;69930;48.232;12.384;2024-03-07T22:18:27;24.17;;;17.90;;
9292;SDS011;69930;48.232;12.384;2024-03-07T22:20:54;19.77;;;16.63;;
9292;SDS011;69930;48.232;12.384;2024-03-07T22:23:23;19.50;;;16.42;;
9292;SDS011;69930;48.232;12.384;2024-03-07T22:25:51;20.42;;;17.45;;
9292;SDS011;69930;48.232;12.384;2024-03-07T22:28:18;20.17;;;17.10;;
9292;SDS011;69930;48.232;12.384;2024-03-07T22:30:45;20.90;;;17.60;;
9292;SDS011;69930;48.232;12.384;2024-03-07T22:33:12;20.35;;;17.70;;
9292;SDS011;69930;48.232;12.384;2024-03-07T22:35:39;20.83;;;17.75;;
9292;SDS011;69930;48.232;12.384;2024-03-07T22:38:06;23.90;;;18.55;;
9292;SDS011;69930;48.232;12.384;2024-03-07T22:40:35;20.00;;;16.95;;
9292;SDS011;69930;48.232;12.384;2024-03-07T22:43:02;18.15;;;15.40;;
9292;SDS011;69930;48.232;12.384;2024-03-07T22:45:31;17.73;;;15.77;;
9292;SDS011;69930;48.232;12.384;2024-03-07T22:47:58;18.20;;;16.08;;
9292;SDS011;69930;48.232;12.384;2024-03-07T22:50:25;17.85;;;14.93;;